Time;durP1;ratioP1;P1;durP2;ratioP2;P2;SDS_P1;SDS_P2;PMS_P1;PMS_P2;Temp;Humidity;BMP_temperature;BMP_pressure;BME280_temperature;BME280_humidity;BME280_pressure;Samples;Min_cycle;Max_cycle;Signal;HPM_P1;HPM_P2
2023/12/20 00:00:30;;;;;;;232.02;152.25;;;;;;;;;;5046721;28;20401;-72
2023/12/20 00:02:56;;;;;;;215.32;146.80;;;;;;;;;;5044806;28;20025;-70
2023/12/20 00:05:22;;;;;;;212.23;142.35;;;;;;;;;;5045992;28;20025;-70
2023/12/20 00:07:48;;;;;;;214.10;144.27;;;;;;;;;;5038022;28;20455;-70
2023/12/20 00:10:14;;;;;;;212.55;144.25;;;;;;;;;;5046740;28;20029;-70
2023/12/20 00:12:40;;;;;;;219.05;144.25;;;;;;;;;;5036788;28;20432;-70
2023/12/20 00:15:07;;;;;;;213.07;142.63;;;;;;;;;;5044825;28;20025;-69
2023/12/20 00:17:33;;;;;;;208.85;141.68;;;;;;;;;;5041802;28;20029;-71
2023/12/20 00:19:58;;;;;;;204.57;140.10;;;;;;;;;;5043155;28;20026;-71
2023/12/20 00:22:24;;;;;;;206.45;136.52;;;;;;;;;;5044480;28;20614;-69
2023/12/20 00:24:51;;;;;;;213.23;139.25;;;;;;;;;;5047435;28;20040;-70
2023/12/20 00:27:17;;;;;;;204.52;138.27;;;;;;;;;;5040051;28;20041;-71
2023/12/20 00:29:47;;;;;;;205.02;138.60;;;;;;;;;;5041067;28;20045;-70
2023/12/20 00:32:13;;;;;;;201.48;133.68;;;;;;;;;;5044557;28;20044;-69
2023/12/20 00:34:39;;;;;;;194.38;131.68;;;;;;;;;;5051073;28;20025;-70
2023/12/20 00:37:05;;;;;;;205.68;132.52;;;;;;;;;;5044005;28;20100;-72
2023/12/20 00:39:32;;;;;;;199.88;127.55;;;;;;;;;;5044664;28;20021;-67
2023/12/20 00:41:58;;;;;;;201.55;131.13;;;;;;;;;;5048893;28;20024;-70
2023/12/20 00:44:24;;;;;;;195.95;125.32;;;;;;;;;;5042071;28;20029;-71
2023/12/20 00:46:51;;;;;;;188.38;125.85;;;;;;;;;;5049350;28;20022;-70
2023/12/20 00:49:17;;;;;;;198.10;126.95;;;;;;;;;;5047020;28;20021;-70
2023/12/20 00:51:43;;;;;;;195.57;128.55;;;;;;;;;;5040419;28;20604;-69
2023/12/20 00:54:09;;;;;;;190.65;124.75;;;;;;;;;;5050658;28;20104;-71
2023/12/20 00:56:35;;;;;;;188.98;125.53;;;;;;;;;;5039328;28;20457;-71
2023/12/20 00:59:01;;;;;;;188.63;124.45;;;;;;;;;;5047641;28;20056;-71
2023/12/20 01:01:27;;;;;;;204.80;122.57;;;;;;;;;;5049538;28;20026;-70
2023/12/20 01:03:53;;;;;;;187.68;120.63;;;;;;;;;;5047136;28;20536;-68
2023/12/20 01:06:19;;;;;;;187.68;123.28;;;;;;;;;;5047657;28;20021;-69
2023/12/20 01:08:45;;;;;;;177.25;118.63;;;;;;;;;;5047508;28;20029;-69
2023/12/20 01:11:11;;;;;;;178.48;119.32;;;;;;;;;;5047384;28;20017;-69
2023/12/20 01:13:37;;;;;;;183.15;120.75;;;;;;;;;;5046008;28;20075;-69
2023/12/20 01:16:04;;;;;;;178.27;116.10;;;;;;;;;;5038886;28;20045;-68
2023/12/20 01:18:29;;;;;;;176.98;116.97;;;;;;;;;;5051549;28;20055;-68
2023/12/20 01:20:55;;;;;;;170.27;115.05;;;;;;;;;;5047068;28;20064;-68
2023/12/20 01:23:21;;;;;;;164.32;111.90;;;;;;;;;;5045697;28;20021;-68
2023/12/20 01:25:48;;;;;;;163.40;111.40;;;;;;;;;;5044458;28;20029;-67
2023/12/20 01:28:14;;;;;;;171.77;113.35;;;;;;;;;;5047079;28;20021;-67
2023/12/20 01:30:40;;;;;;;165.15;110.10;;;;;;;;;;5049441;28;20032;-68
2023/12/20 01:33:06;;;;;;;162.63;112.05;;;;;;;;;;5043625;28;20195;-69
2023/12/20 01:35:32;;;;;;;162.23;108.78;;;;;;;;;;5044228;28;20038;-69
2023/12/20 01:37:58;;;;;;;165.52;109.93;;;;;;;;;;5045889;28;20133;-68
2023/12/20 01:40:24;;;;;;;165.43;109.30;;;;;;;;;;5046711;28;20021;-69
2023/12/20 01:43:03;;;;;;;168.27;106.63;;;;;;;;;;5047070;28;20385;-69
2023/12/20 01:45:29;;;;;;;160.73;109.03;;;;;;;;;;5044613;28;20021;-69
2023/12/20 01:47:56;;;;;;;159.02;106.15;;;;;;;;;;5037200;28;20127;-69
2023/12/20 01:50:22;;;;;;;159.00;106.13;;;;;;;;;;5044001;28;20033;-70
2023/12/20 01:52:49;;;;;;;151.13;104.70;;;;;;;;;;5046862;28;20032;-71
2023/12/20 01:55:15;;;;;;;151.45;102.70;;;;;;;;;;5035331;28;20029;-68
2023/12/20 01:57:44;;;;;;;150.40;101.32;;;;;;;;;;5046856;28;20045;-69
2023/12/20 02:00:12;;;;;;;148.00;100.60;;;;;;;;;;5030706;28;20509;-72
2023/12/20 02:02:40;;;;;;;150.07;99.57;;;;;;;;;;5039106;28;20099;-71
2023/12/20 02:05:06;;;;;;;146.35;100.40;;;;;;;;;;5037795;28;20108;-69
2023/12/20 02:07:33;;;;;;;151.20;99.55;;;;;;;;;;5043557;28;20095;-69
2023/12/20 02:09:59;;;;;;;150.98;102.15;;;;;;;;;;5044625;28;20025;-69
2023/12/20 02:12:25;;;;;;;142.27;97.10;;;;;;;;;;5045974;28;20067;-69
2023/12/20 02:14:51;;;;;;;143.55;96.93;;;;;;;;;;5046267;28;20099;-69
2023/12/20 02:17:17;;;;;;;142.88;97.55;;;;;;;;;;5045446;28;20031;-67
2023/12/20 02:19:44;;;;;;;138.52;94.38;;;;;;;;;;5042296;28;20021;-66
2023/12/20 02:22:13;;;;;;;139.27;95.00;;;;;;;;;;5045740;28;20508;-70
2023/12/20 02:24:39;;;;;;;140.85;95.53;;;;;;;;;;5042221;28;20490;-70
2023/12/20 02:27:08;;;;;;;133.02;93.30;;;;;;;;;;5046139;28;20053;-70
2023/12/20 02:29:35;;;;;;;136.02;93.78;;;;;;;;;;5042510;28;20100;-70
2023/12/20 02:32:01;;;;;;;136.25;93.07;;;;;;;;;;5047970;28;20021;-70
2023/12/20 02:34:27;;;;;;;133.43;90.38;;;;;;;;;;5037720;28;20497;-69
2023/12/20 02:36:53;;;;;;;133.63;91.50;;;;;;;;;;5045860;28;20029;-68
2023/12/20 02:39:19;;;;;;;136.93;91.78;;;;;;;;;;5047597;28;20070;-68
2023/12/20 02:41:45;;;;;;;133.35;90.45;;;;;;;;;;5038723;28;20029;-68
2023/12/20 02:44:11;;;;;;;124.95;87.32;;;;;;;;;;5045973;28;20055;-68
2023/12/20 02:46:37;;;;;;;127.70;86.50;;;;;;;;;;5040517;28;20087;-68
2023/12/20 02:49:03;;;;;;;126.30;86.32;;;;;;;;;;5045785;28;20108;-68
2023/12/20 02:51:29;;;;;;;127.38;85.18;;;;;;;;;;5043191;28;20116;-68
2023/12/20 02:53:55;;;;;;;126.90;87.03;;;;;;;;;;5046779;28;20104;-69
2023/12/20 02:56:21;;;;;;;123.53;84.55;;;;;;;;;;5046435;28;20024;-69
2023/12/20 02:58:47;;;;;;;122.32;84.53;;;;;;;;;;5055822;28;20021;-69
2023/12/20 03:01:14;;;;;;;118.78;82.75;;;;;;;;;;5051170;28;20024;-68
2023/12/20 03:03:40;;;;;;;123.60;82.38;;;;;;;;;;5061478;28;20021;-69
2023/12/20 03:06:06;;;;;;;115.93;80.97;;;;;;;;;;5056914;28;20017;-69
2023/12/20 03:08:32;;;;;;;115.25;80.43;;;;;;;;;;5061777;28;20013;-70
2023/12/20 03:11:00;;;;;;;116.07;80.68;;;;;;;;;;5049057;28;20052;-70
2023/12/20 03:13:26;;;;;;;119.80;81.85;;;;;;;;;;5048722;28;20115;-68
2023/12/20 03:15:52;;;;;;;115.43;80.75;;;;;;;;;;5052677;28;20026;-67
2023/12/20 03:18:18;;;;;;;123.05;78.68;;;;;;;;;;5039379;28;20043;-68
2023/12/20 03:20:44;;;;;;;113.90;76.80;;;;;;;;;;5045973;28;20120;-69
2023/12/20 03:23:10;;;;;;;116.40;77.65;;;;;;;;;;5050126;28;20036;-69
2023/12/20 03:25:36;;;;;;;111.63;77.45;;;;;;;;;;5043850;28;20103;-70
2023/12/20 03:28:02;;;;;;;110.97;75.43;;;;;;;;;;5044345;28;20021;-71
2023/12/20 03:30:28;;;;;;;117.45;74.70;;;;;;;;;;5045929;28;20108;-71
2023/12/20 03:32:54;;;;;;;104.80;73.22;;;;;;;;;;5039636;28;20029;-72
2023/12/20 03:35:20;;;;;;;118.63;73.90;;;;;;;;;;5043719;28;20394;-71
2023/12/20 03:37:46;;;;;;;109.20;73.35;;;;;;;;;;5042003;28;20053;-71
2023/12/20 03:40:12;;;;;;;105.30;71.75;;;;;;;;;;5044786;28;20347;-71
2023/12/20 03:42:38;;;;;;;110.32;73.85;;;;;;;;;;5029340;28;20025;-70
2023/12/20 03:45:04;;;;;;;106.22;70.10;;;;;;;;;;5068916;22;20028;-68
2023/12/20 03:47:30;;;;;;;101.25;70.68;;;;;;;;;;5023088;28;20053;-70
2023/12/20 03:49:56;;;;;;;103.45;70.63;;;;;;;;;;5031853;28;20038;-70
2023/12/20 03:52:22;;;;;;;103.35;69.95;;;;;;;;;;5040373;28;20096;-68
2023/12/20 03:54:48;;;;;;;101.72;66.95;;;;;;;;;;5034754;28;20056;-68
2023/12/20 03:57:14;;;;;;;94.40;67.00;;;;;;;;;;5034908;28;20033;-68
2023/12/20 03:59:40;;;;;;;100.40;67.43;;;;;;;;;;5027322;28;20029;-69
2023/12/20 04:02:06;;;;;;;100.32;67.43;;;;;;;;;;5024000;28;20383;-69
2023/12/20 04:04:32;;;;;;;94.43;65.70;;;;;;;;;;5037627;28;21384;-72
2023/12/20 04:06:58;;;;;;;93.35;64.10;;;;;;;;;;5033399;28;20453;-74
2023/12/20 04:09:24;;;;;;;96.47;64.90;;;;;;;;;;5040218;28;20104;-73
2023/12/20 04:11:50;;;;;;;100.25;65.10;;;;;;;;;;5046835;28;20397;-73
2023/12/20 04:14:17;;;;;;;95.03;62.78;;;;;;;;;;5038437;28;20379;-74
2023/12/20 04:16:43;;;;;;;94.25;63.97;;;;;;;;;;5039825;28;20036;-74
2023/12/20 04:19:08;;;;;;;97.07;64.57;;;;;;;;;;5045834;28;20017;-74
2023/12/20 04:21:34;;;;;;;94.47;64.18;;;;;;;;;;5042734;28;20029;-72
2023/12/20 04:24:00;;;;;;;96.68;63.03;;;;;;;;;;5046616;28;20067;-71
2023/12/20 04:26:26;;;;;;;88.68;57.95;;;;;;;;;;5036035;28;20013;-70
2023/12/20 04:28:52;;;;;;;85.90;58.75;;;;;;;;;;5045741;28;20032;-71
2023/12/20 04:31:18;;;;;;;88.68;60.20;;;;;;;;;;5035942;28;20097;-72
2023/12/20 04:33:44;;;;;;;86.95;59.03;;;;;;;;;;5030481;28;20022;-72
2023/12/20 04:36:10;;;;;;;85.03;59.55;;;;;;;;;;5042294;28;20612;-72
2023/12/20 04:38:36;;;;;;;86.88;59.35;;;;;;;;;;5045170;28;20025;-72
2023/12/20 04:41:02;;;;;;;84.85;55.92;;;;;;;;;;5045392;28;20040;-73
2023/12/20 04:43:29;;;;;;;91.05;59.08;;;;;;;;;;5043206;28;20074;-72
2023/12/20 04:45:55;;;;;;;82.30;55.42;;;;;;;;;;5041504;28;20418;-72
2023/12/20 04:48:21;;;;;;;82.32;57.00;;;;;;;;;;5039795;28;20100;-74
2023/12/20 04:50:47;;;;;;;80.90;55.45;;;;;;;;;;5037608;28;20605;-71
2023/12/20 04:53:13;;;;;;;80.80;54.25;;;;;;;;;;5037752;28;20025;-68
2023/12/20 04:55:39;;;;;;;76.30;54.35;;;;;;;;;;5041173;28;20021;-71
2023/12/20 04:58:05;;;;;;;83.40;54.80;;;;;;;;;;5037930;28;20530;-70
2023/12/20 05:00:31;;;;;;;79.93;54.33;;;;;;;;;;5037038;28;20041;-70
2023/12/20 05:02:57;;;;;;;75.25;52.05;;;;;;;;;;5036182;28;20113;-70
2023/12/20 05:05:23;;;;;;;76.90;50.72;;;;;;;;;;5038705;28;20620;-69
2023/12/20 05:07:49;;;;;;;85.43;54.40;;;;;;;;;;5030632;28;20096;-72
2023/12/20 05:10:15;;;;;;;78.68;51.05;;;;;;;;;;5041095;28;20553;-67
2023/12/20 05:12:41;;;;;;;79.65;49.33;;;;;;;;;;5044875;28;20041;-69
2023/12/20 05:15:07;;;;;;;74.85;50.65;;;;;;;;;;5044667;28;20044;-70
2023/12/20 05:17:33;;;;;;;79.05;50.13;;;;;;;;;;5040603;28;20032;-70
2023/12/20 05:19:59;;;;;;;78.60;50.78;;;;;;;;;;5041772;28;20028;-71
2023/12/20 05:22:27;;;;;;;71.18;47.75;;;;;;;;;;5043018;28;20056;-72
2023/12/20 05:24:53;;;;;;;76.40;49.28;;;;;;;;;;5036561;28;20040;-71
2023/12/20 05:27:19;;;;;;;78.80;48.40;;;;;;;;;;5037853;28;20026;-69
2023/12/20 05:29:45;;;;;;;73.93;47.45;;;;;;;;;;5039769;28;20075;-68
2023/12/20 05:32:11;;;;;;;67.38;45.90;;;;;;;;;;5037375;28;20053;-69
2023/12/20 05:34:37;;;;;;;68.63;46.58;;;;;;;;;;5036809;28;20009;-68
2023/12/20 05:37:03;;;;;;;67.82;45.83;;;;;;;;;;5036718;28;20017;-70
2023/12/20 05:39:30;;;;;;;68.93;43.20;;;;;;;;;;5039552;28;20673;-70
2023/12/20 05:41:56;;;;;;;67.28;43.78;;;;;;;;;;5040848;28;20044;-68
2023/12/20 05:44:23;;;;;;;70.93;45.70;;;;;;;;;;5041780;28;20029;-76
2023/12/20 05:46:49;;;;;;;66.25;43.60;;;;;;;;;;5037572;28;20036;-75
2023/12/20 05:49:15;;;;;;;64.38;42.80;;;;;;;;;;5034172;28;20029;-74
2023/12/20 05:51:41;;;;;;;61.95;41.53;;;;;;;;;;5030371;28;20037;-75
2023/12/20 05:54:07;;;;;;;67.35;44.15;;;;;;;;;;5040389;28;20474;-74
2023/12/20 05:56:33;;;;;;;63.78;43.50;;;;;;;;;;5030891;28;20018;-74
2023/12/20 05:58:59;;;;;;;61.30;40.90;;;;;;;;;;5036601;28;20036;-72
2023/12/20 06:01:25;;;;;;;61.42;42.30;;;;;;;;;;5037633;28;20616;-71
2023/12/20 06:03:51;;;;;;;62.03;41.53;;;;;;;;;;5033895;28;20033;-71
2023/12/20 06:06:17;;;;;;;61.75;40.55;;;;;;;;;;5035683;28;20017;-70
2023/12/20 06:08:43;;;;;;;60.03;39.40;;;;;;;;;;5037572;28;20083;-71
2023/12/20 06:11:09;;;;;;;57.97;39.30;;;;;;;;;;5040420;28;20075;-71
2023/12/20 06:13:35;;;;;;;56.65;38.90;;;;;;;;;;5040201;28;20021;-70
2023/12/20 06:16:01;;;;;;;59.42;39.15;;;;;;;;;;5035529;28;20021;-73
2023/12/20 06:18:27;;;;;;;59.20;40.22;;;;;;;;;;5036248;28;20501;-71
2023/12/20 06:20:53;;;;;;;59.28;37.78;;;;;;;;;;5030526;28;20112;-72
2023/12/20 06:23:19;;;;;;;63.17;39.97;;;;;;;;;;5036514;28;20128;-70
2023/12/20 06:25:45;;;;;;;57.25;37.95;;;;;;;;;;5039036;28;20032;-70
2023/12/20 06:28:14;;;;;;;56.05;37.15;;;;;;;;;;5035676;28;20017;-70
2023/12/20 06:30:40;;;;;;;59.10;37.95;;;;;;;;;;5035010;28;20072;-70
2023/12/20 06:33:06;;;;;;;52.88;36.17;;;;;;;;;;5035835;28;20482;-69
2023/12/20 06:35:32;;;;;;;51.63;36.38;;;;;;;;;;5037995;28;20022;-74
2023/12/20 06:37:59;;;;;;;64.45;37.38;;;;;;;;;;5032526;28;20022;-73
2023/12/20 06:40:27;;;;;;;53.67;36.33;;;;;;;;;;5036514;28;20022;-72
2023/12/20 06:42:53;;;;;;;51.70;35.20;;;;;;;;;;5034569;28;20405;-73
2023/12/20 06:45:19;;;;;;;53.40;36.08;;;;;;;;;;5046717;28;20086;-72
2023/12/20 06:47:45;;;;;;;56.13;35.50;;;;;;;;;;5026296;28;20444;-72
2023/12/20 06:50:11;;;;;;;52.63;35.40;;;;;;;;;;5035248;28;20021;-72
2023/12/20 06:52:37;;;;;;;51.92;35.50;;;;;;;;;;5042768;28;20025;-70
2023/12/20 06:55:03;;;;;;;54.60;34.17;;;;;;;;;;5042705;28;20021;-71
2023/12/20 06:57:30;;;;;;;51.55;34.20;;;;;;;;;;5039082;28;20021;-70
2023/12/20 06:59:57;;;;;;;49.95;34.08;;;;;;;;;;5031112;28;20029;-68
2023/12/20 07:02:23;;;;;;;54.35;34.90;;;;;;;;;;5043451;28;20052;-69
2023/12/20 07:04:49;;;;;;;50.28;32.53;;;;;;;;;;5034428;28;20479;-69
2023/12/20 07:07:15;;;;;;;57.55;34.13;;;;;;;;;;5036064;28;20029;-72
2023/12/20 07:09:42;;;;;;;58.10;31.67;;;;;;;;;;5028472;28;20478;-71
2023/12/20 07:12:09;;;;;;;46.00;31.58;;;;;;;;;;5038684;28;20021;-70
2023/12/20 07:14:35;;;;;;;61.78;34.45;;;;;;;;;;5039002;28;20021;-71
2023/12/20 07:17:01;;;;;;;53.05;31.83;;;;;;;;;;5035015;28;20093;-71
2023/12/20 07:19:27;;;;;;;55.72;32.30;;;;;;;;;;5036565;28;20072;-71
2023/12/20 07:21:53;;;;;;;54.67;30.08;;;;;;;;;;5036966;28;20510;-73
2023/12/20 07:24:19;;;;;;;45.97;22.63;;;;;;;;;;5039577;28;20099;-70
2023/12/20 07:26:45;;;;;;;51.67;26.73;;;;;;;;;;5038335;28;20034;-70
2023/12/20 07:29:11;;;;;;;44.15;28.52;;;;;;;;;;5034529;28;20025;-71
2023/12/20 07:31:38;;;;;;;63.42;27.25;;;;;;;;;;5042699;28;20446;-68
2023/12/20 07:34:05;;;;;;;65.70;28.02;;;;;;;;;;5038973;28;20029;-68
2023/12/20 07:36:31;;;;;;;56.08;26.70;;;;;;;;;;5040045;28;20021;-69
2023/12/20 07:38:57;;;;;;;57.42;28.33;;;;;;;;;;5028182;28;20044;-71
2023/12/20 07:41:23;;;;;;;45.22;21.85;;;;;;;;;;5024877;28;20022;-73
2023/12/20 07:43:49;;;;;;;42.55;15.57;;;;;;;;;;5041242;28;20021;-72
2023/12/20 07:46:15;;;;;;;9.18;5.80;;;;;;;;;;5038490;28;20025;-72
2023/12/20 07:48:42;;;;;;;11.52;5.40;;;;;;;;;;5028396;28;20486;-73
2023/12/20 07:51:09;;;;;;;9.73;5.13;;;;;;;;;;5041886;28;20029;-75
2023/12/20 07:53:35;;;;;;;11.32;5.68;;;;;;;;;;5034064;28;20021;-70
2023/12/20 07:56:01;;;;;;;18.13;8.27;;;;;;;;;;5032042;28;20343;-69
2023/12/20 07:58:29;;;;;;;16.40;7.57;;;;;;;;;;5033309;28;20057;-70
2023/12/20 08:00:55;;;;;;;19.30;11.80;;;;;;;;;;5032950;28;20059;-70
2023/12/20 08:03:21;;;;;;;22.25;11.68;;;;;;;;;;5032077;28;20029;-70
2023/12/20 08:05:47;;;;;;;23.55;10.63;;;;;;;;;;5032682;28;20056;-70
2023/12/20 08:08:13;;;;;;;17.33;10.40;;;;;;;;;;5032475;28;20033;-67
2023/12/20 08:10:39;;;;;;;20.38;10.70;;;;;;;;;;5032827;28;20049;-70
2023/12/20 08:13:06;;;;;;;26.02;11.90;;;;;;;;;;5033892;28;20116;-70
2023/12/20 08:15:32;;;;;;;21.13;12.32;;;;;;;;;;5034765;28;20059;-69
2023/12/20 08:17:58;;;;;;;25.48;13.20;;;;;;;;;;5034648;28;20557;-68
2023/12/20 08:20:24;;;;;;;36.95;15.68;;;;;;;;;;5033081;28;20070;-68
2023/12/20 08:22:50;;;;;;;33.10;15.98;;;;;;;;;;5034205;28;20517;-71
2023/12/20 08:25:16;;;;;;;34.85;15.30;;;;;;;;;;5017134;28;20034;-69
2023/12/20 08:27:42;;;;;;;39.95;14.77;;;;;;;;;;5014916;28;20037;-69
2023/12/20 08:30:09;;;;;;;29.50;15.48;;;;;;;;;;5013019;28;20026;-68
2023/12/20 08:32:35;;;;;;;44.13;16.15;;;;;;;;;;5014518;28;20029;-66
2023/12/20 08:35:02;;;;;;;30.23;16.08;;;;;;;;;;5014317;28;20025;-68
2023/12/20 08:37:27;;;;;;;34.42;15.52;;;;;;;;;;5014381;28;20021;-69
2023/12/20 08:39:53;;;;;;;30.55;16.17;;;;;;;;;;5012794;28;20034;-69
2023/12/20 08:42:19;;;;;;;29.67;16.48;;;;;;;;;;5014162;28;20101;-69
2023/12/20 08:44:45;;;;;;;38.40;16.02;;;;;;;;;;5014279;28;20495;-69
2023/12/20 08:47:13;;;;;;;30.23;15.52;;;;;;;;;;5014068;28;20044;-69
2023/12/20 08:49:39;;;;;;;31.15;15.05;;;;;;;;;;5013883;28;20034;-69
2023/12/20 08:52:05;;;;;;;30.27;14.82;;;;;;;;;;5013021;28;20026;-69
2023/12/20 08:54:32;;;;;;;32.28;14.38;;;;;;;;;;5012025;28;20515;-68
2023/12/20 08:56:57;;;;;;;31.67;14.77;;;;;;;;;;5013707;28;20403;-68
2023/12/20 08:59:23;;;;;;;39.15;15.93;;;;;;;;;;5012523;28;20033;-68
2023/12/20 09:01:54;;;;;;;29.00;13.40;;;;;;;;;;5012675;28;20037;-69
2023/12/20 09:04:20;;;;;;;25.42;14.18;;;;;;;;;;5014247;28;20109;-70
2023/12/20 09:06:46;;;;;;;27.25;14.68;;;;;;;;;;5014183;28;20395;-68
2023/12/20 09:09:14;;;;;;;28.00;13.98;;;;;;;;;;5017951;28;20028;-67
2023/12/20 09:11:40;;;;;;;36.20;14.02;;;;;;;;;;5032365;28;20100;-69
2023/12/20 09:14:06;;;;;;;24.63;14.25;;;;;;;;;;5033180;28;20029;-72
2023/12/20 09:16:32;;;;;;;38.85;14.27;;;;;;;;;;5032263;28;20021;-71
2023/12/20 09:18:58;;;;;;;43.67;14.70;;;;;;;;;;5033943;28;20056;-72
2023/12/20 09:21:24;;;;;;;42.95;14.15;;;;;;;;;;5033552;28;20025;-66
2023/12/20 09:23:50;;;;;;;40.90;14.13;;;;;;;;;;5033425;28;20017;-69
2023/12/20 09:26:16;;;;;;;40.58;14.73;;;;;;;;;;5033329;28;20025;-69
2023/12/20 09:28:42;;;;;;;45.78;14.02;;;;;;;;;;5033132;28;20044;-73
2023/12/20 09:31:08;;;;;;;51.83;13.98;;;;;;;;;;5032875;28;20029;-71
2023/12/20 09:33:34;;;;;;;39.80;15.27;;;;;;;;;;5031929;28;20052;-70
2023/12/20 09:36:00;;;;;;;51.53;14.85;;;;;;;;;;5031893;28;20081;-71
2023/12/20 09:38:26;;;;;;;76.97;20.77;;;;;;;;;;5033271;28;20033;-71
2023/12/20 09:40:54;;;;;;;60.80;17.20;;;;;;;;;;5032995;28;20086;-71
2023/12/20 09:43:20;;;;;;;44.78;15.82;;;;;;;;;;5031730;28;20026;-68
2023/12/20 09:45:47;;;;;;;44.15;16.02;;;;;;;;;;5032926;22;20034;-69
2023/12/20 09:48:14;;;;;;;44.72;15.18;;;;;;;;;;5051671;28;20025;-69
2023/12/20 09:50:40;;;;;;;38.67;14.80;;;;;;;;;;5066749;28;20033;-68
2023/12/20 09:53:09;;;;;;;38.97;14.02;;;;;;;;;;5044986;28;20030;-68
2023/12/20 09:55:36;;;;;;;52.40;15.07;;;;;;;;;;5046914;28;20098;-69
2023/12/20 09:58:02;;;;;;;47.13;13.73;;;;;;;;;;5049845;28;20458;-69
2023/12/20 10:00:28;;;;;;;46.38;14.05;;;;;;;;;;5051392;28;20124;-68
2023/12/20 10:02:58;;;;;;;38.72;14.10;;;;;;;;;;5051101;28;20060;-68
2023/12/20 10:05:28;;;;;;;47.22;14.23;;;;;;;;;;5049710;28;20021;-69
2023/12/20 10:07:54;;;;;;;38.05;13.30;;;;;;;;;;5049957;28;20121;-68
2023/12/20 10:10:20;;;;;;;44.40;14.25;;;;;;;;;;5051084;28;20107;-68
2023/12/20 10:13:02;;;;;;;44.42;13.93;;;;;;;;;;5051422;28;20043;-66
2023/12/20 10:15:29;;;;;;;48.83;13.88;;;;;;;;;;5051657;28;20021;-67
2023/12/20 10:17:55;;;;;;;52.42;14.20;;;;;;;;;;5051370;28;20033;-67
2023/12/20 10:20:21;;;;;;;43.50;14.10;;;;;;;;;;5051081;28;20457;-68
2023/12/20 10:22:48;;;;;;;32.50;12.85;;;;;;;;;;5051418;28;20064;-67
2023/12/20 10:25:14;;;;;;;39.15;12.18;;;;;;;;;;5051282;28;20136;-67
2023/12/20 10:27:40;;;;;;;37.97;13.60;;;;;;;;;;5051101;28;20084;-68
2023/12/20 10:30:07;;;;;;;38.00;12.68;;;;;;;;;;5050708;28;20104;-68
2023/12/20 10:32:33;;;;;;;32.50;13.23;;;;;;;;;;5051231;28;20021;-65
2023/12/20 10:34:59;;;;;;;31.70;12.10;;;;;;;;;;5051856;28;20509;-67
2023/12/20 10:37:25;;;;;;;42.40;12.32;;;;;;;;;;5052061;28;20024;-66
2023/12/20 10:39:52;;;;;;;25.95;11.07;;;;;;;;;;5054502;28;20021;-68
2023/12/20 10:42:21;;;;;;;31.23;12.75;;;;;;;;;;5062407;28;20043;-67
2023/12/20 10:44:48;;;;;;;29.90;12.00;;;;;;;;;;5062680;28;20100;-67
2023/12/20 10:47:14;;;;;;;31.98;12.45;;;;;;;;;;5058961;28;20037;-66
2023/12/20 10:49:40;;;;;;;24.27;11.55;;;;;;;;;;5050454;28;20063;-67
2023/12/20 10:52:07;;;;;;;36.30;12.45;;;;;;;;;;5050368;28;20485;-67
2023/12/20 10:54:33;;;;;;;26.20;11.80;;;;;;;;;;5050496;28;20013;-66
2023/12/20 10:57:00;;;;;;;31.48;10.88;;;;;;;;;;5050494;28;20032;-68
2023/12/20 10:59:28;;;;;;;26.90;10.88;;;;;;;;;;5050219;28;20025;-67
2023/12/20 11:01:55;;;;;;;26.50;11.40;;;;;;;;;;5050308;28;20025;-68
2023/12/20 11:04:28;;;;;;;26.00;10.30;;;;;;;;;;5050256;28;20024;-67
2023/12/20 11:07:03;;;;;;;30.48;11.45;;;;;;;;;;5050483;28;20099;-67
2023/12/20 11:09:38;;;;;;;29.27;10.25;;;;;;;;;;5048696;28;20040;-67
2023/12/20 11:12:13;;;;;;;27.40;10.80;;;;;;;;;;5050277;28;20254;-68
2023/12/20 11:14:43;;;;;;;24.35;10.48;;;;;;;;;;5050355;28;20497;-66
2023/12/20 11:17:11;;;;;;;27.73;9.93;;;;;;;;;;5050019;28;20043;-67
2023/12/20 11:19:37;;;;;;;32.92;11.32;;;;;;;;;;5050078;28;20382;-66
2023/12/20 11:22:05;;;;;;;23.83;9.52;;;;;;;;;;5050278;28;20025;-65
2023/12/20 11:24:33;;;;;;;20.33;9.52;;;;;;;;;;5050087;28;20029;-67
2023/12/20 11:27:00;;;;;;;20.00;10.07;;;;;;;;;;5050117;28;20032;-67
2023/12/20 11:29:34;;;;;;;24.80;10.80;;;;;;;;;;5050248;28;20064;-67
2023/12/20 11:32:01;;;;;;;26.17;10.15;;;;;;;;;;5050531;28;20051;-67
2023/12/20 11:34:28;;;;;;;25.58;10.30;;;;;;;;;;5050554;28;20087;-67
2023/12/20 11:36:59;;;;;;;24.02;9.45;;;;;;;;;;5050605;28;20092;-68
2023/12/20 11:39:26;;;;;;;19.90;10.13;;;;;;;;;;5050307;28;20026;-67
2023/12/20 11:41:52;;;;;;;20.17;9.68;;;;;;;;;;5050295;28;20036;-67
2023/12/20 11:44:18;;;;;;;24.20;9.65;;;;;;;;;;5049162;28;20029;-67
2023/12/20 11:46:45;;;;;;;25.73;9.70;;;;;;;;;;5049681;28;20170;-66
2023/12/20 11:49:11;;;;;;;23.23;10.25;;;;;;;;;;5049437;28;20029;-69
2023/12/20 11:51:41;;;;;;;26.63;9.68;;;;;;;;;;5049837;28;20070;-68
2023/12/20 11:54:07;;;;;;;24.25;9.00;;;;;;;;;;5049414;28;20044;-68
2023/12/20 11:56:33;;;;;;;20.42;8.85;;;;;;;;;;5049700;28;20393;-68
2023/12/20 11:58:59;;;;;;;22.55;8.63;;;;;;;;;;5049848;28;20037;-69
2023/12/20 12:01:25;;;;;;;18.17;8.10;;;;;;;;;;5049450;28;20495;-68
2023/12/20 12:04:02;;;;;;;20.95;7.97;;;;;;;;;;5049584;28;20044;-69
2023/12/20 12:06:28;;;;;;;19.67;7.85;;;;;;;;;;5049622;28;20029;-68
2023/12/20 12:08:55;;;;;;;16.63;8.20;;;;;;;;;;5049745;28;20029;-67
2023/12/20 12:11:21;;;;;;;24.02;8.80;;;;;;;;;;5049374;28;20516;-67
2023/12/20 12:13:47;;;;;;;18.38;8.15;;;;;;;;;;5049629;28;20025;-68
2023/12/20 12:16:17;;;;;;;19.95;7.38;;;;;;;;;;5049439;28;20083;-67
2023/12/20 12:18:43;;;;;;;15.93;8.02;;;;;;;;;;5049586;28;20033;-68
2023/12/20 12:21:09;;;;;;;25.00;7.05;;;;;;;;;;5049416;28;20037;-67
2023/12/20 12:23:35;;;;;;;20.75;7.72;;;;;;;;;;5049368;28;20025;-67
2023/12/20 12:26:04;;;;;;;15.38;7.13;;;;;;;;;;5049354;28;20461;-67
2023/12/20 12:28:32;;;;;;;15.88;7.70;;;;;;;;;;5049448;28;20025;-66
2023/12/20 12:31:01;;;;;;;14.07;7.20;;;;;;;;;;5052674;28;20507;-67
2023/12/20 12:33:27;;;;;;;13.85;6.80;;;;;;;;;;5053284;28;20059;-68
2023/12/20 12:35:53;;;;;;;14.93;7.10;;;;;;;;;;5053169;28;20017;-67
2023/12/20 12:38:23;;;;;;;14.48;6.75;;;;;;;;;;5053057;28;20096;-67
2023/12/20 12:40:49;;;;;;;12.90;7.45;;;;;;;;;;5051931;28;20476;-67
2023/12/20 12:43:15;;;;;;;16.23;6.65;;;;;;;;;;5051249;28;20033;-67
2023/12/20 12:45:41;;;;;;;15.10;7.10;;;;;;;;;;5052431;28;20084;-67
2023/12/20 12:48:08;;;;;;;17.13;7.05;;;;;;;;;;5052647;28;20055;-68
2023/12/20 12:50:34;;;;;;;13.25;6.28;;;;;;;;;;5052304;28;20040;-67
2023/12/20 12:53:00;;;;;;;11.50;6.10;;;;;;;;;;5052196;28;20091;-66
2023/12/20 12:55:26;;;;;;;14.27;7.00;;;;;;;;;;5052467;28;20108;-67
2023/12/20 12:57:52;;;;;;;12.88;6.35;;;;;;;;;;5052718;28;20047;-68
2023/12/20 13:00:19;;;;;;;15.13;6.65;;;;;;;;;;5052798;28;20025;-68
2023/12/20 13:02:45;;;;;;;14.85;6.75;;;;;;;;;;5053366;28;20025;-69
2023/12/20 13:05:11;;;;;;;14.27;6.93;;;;;;;;;;5053413;28;20029;-69
2023/12/20 13:07:37;;;;;;;15.18;7.30;;;;;;;;;;5053397;28;20077;-65
2023/12/20 13:10:04;;;;;;;18.60;6.93;;;;;;;;;;5052871;28;20493;-70
2023/12/20 13:12:30;;;;;;;16.25;5.68;;;;;;;;;;5053234;28;20025;-69
2023/12/20 13:14:56;;;;;;;12.52;5.97;;;;;;;;;;5053230;28;20378;-69
2023/12/20 13:17:22;;;;;;;14.23;7.03;;;;;;;;;;5053231;28;20025;-69
2023/12/20 13:19:49;;;;;;;22.88;7.07;;;;;;;;;;5053186;28;20021;-68
2023/12/20 13:22:15;;;;;;;11.95;6.13;;;;;;;;;;5053104;28;20025;-69
2023/12/20 13:24:44;;;;;;;15.85;6.82;;;;;;;;;;5053219;28;20033;-68
2023/12/20 13:27:10;;;;;;;12.63;6.22;;;;;;;;;;5052786;28;20067;-69
2023/12/20 13:29:36;;;;;;;11.75;5.90;;;;;;;;;;5051974;28;20021;-67
2023/12/20 13:32:03;;;;;;;28.05;6.07;;;;;;;;;;5053098;28;20025;-68
2023/12/20 13:34:29;;;;;;;13.68;6.05;;;;;;;;;;5052283;28;20056;-68
2023/12/20 13:36:56;;;;;;;10.90;5.65;;;;;;;;;;5052920;28;20549;-68
2023/12/20 13:39:22;;;;;;;11.70;5.95;;;;;;;;;;5051216;28;20567;-67
2023/12/20 13:41:48;;;;;;;15.52;5.93;;;;;;;;;;5052620;28;20029;-66
2023/12/20 13:44:14;;;;;;;13.93;6.28;;;;;;;;;;5052504;28;20033;-69
2023/12/20 13:46:41;;;;;;;10.07;5.35;;;;;;;;;;5052524;28;20104;-66
2023/12/20 13:49:07;;;;;;;14.18;6.40;;;;;;;;;;5051488;28;20512;-66
2023/12/20 13:51:33;;;;;;;15.95;5.72;;;;;;;;;;5051886;28;20470;-67
2023/12/20 13:54:00;;;;;;;17.10;6.68;;;;;;;;;;5050609;28;20102;-68
2023/12/20 13:56:26;;;;;;;10.05;5.82;;;;;;;;;;5051629;28;20028;-68
2023/12/20 13:58:52;;;;;;;12.68;6.15;;;;;;;;;;5051718;28;20099;-67
2023/12/20 14:01:18;;;;;;;11.63;5.35;;;;;;;;;;5051630;28;20041;-68
2023/12/20 14:03:44;;;;;;;9.93;5.88;;;;;;;;;;5051501;28;20075;-69
2023/12/20 14:06:10;;;;;;;10.80;6.10;;;;;;;;;;5051322;28;20456;-68
2023/12/20 14:08:37;;;;;;;10.93;5.15;;;;;;;;;;5051075;28;20029;-69